createdAt,value
2023-05-08T08:32:27.978Z,99814.47
2023-05-08T08:34:54.498Z,99817.88
2023-05-08T09:01:33.344Z,99808.69
2023-05-08T09:04:00.111Z,99821.25
2023-05-08T09:06:28.743Z,99824.41
2023-05-08T09:08:55.193Z,99815.44
2023-05-08T09:11:24.404Z,99818.56
2023-05-08T09:13:50.952Z,99811.88
2023-05-08T09:16:17.509Z,99814.97
2023-05-08T09:18:44.668Z,99808.28
2023-05-08T09:21:11.454Z,99812.97
2023-05-08T09:23:38.260Z,99816.22
2023-05-08T09:26:06.728Z,99815.16
2023-05-08T09:28:33.160Z,99812.91
2023-05-08T09:30:59.843Z,99823.28
2023-05-08T09:33:26.236Z,99814.50
2023-05-08T09:35:52.914Z,99800.38
2023-05-08T09:38:19.344Z,99807.81
2023-05-08T09:40:45.834Z,99808.94
2023-05-08T09:43:12.591Z,99802.31
2023-05-08T09:45:39.085Z,99801.56
2023-05-08T09:48:05.837Z,99802.47
2023-05-08T09:50:32.467Z,99787.47
2023-05-08T09:52:58.851Z,99795.00
2023-05-08T09:55:27.582Z,99796.31
2023-05-08T10:00:19.165Z,99788.25
2023-05-08T10:02:46.030Z,99795.59
2023-05-08T15:08:08.423Z,99619.75
2023-05-08T15:34:49.079Z,99598.47
2023-05-08T15:37:15.518Z,99606.97
2023-05-08T15:44:54.002Z,99598.69
2023-05-08T15:47:23.618Z,99610.00
2023-05-08T15:49:50.308Z,99601.31
2023-05-08T15:52:16.756Z,99600.75
2023-05-08T15:54:43.277Z,99596.88
2023-05-08T15:57:09.632Z,99590.34
2023-05-08T15:59:36.064Z,99591.00
2023-05-08T16:02:02.527Z,99597.38
2023-05-08T16:04:29.012Z,99590.78
2023-05-08T16:06:55.422Z,99594.91
2023-05-08T16:09:21.940Z,99593.31
2023-05-08T16:11:48.282Z,99595.88
2023-05-08T16:14:14.760Z,99593.16
2023-05-08T16:16:41.250Z,99591.84
2023-05-08T16:19:07.881Z,99586.97
2023-05-08T16:21:34.270Z,99591.78
2023-05-08T16:24:00.730Z,99588.25
2023-05-08T16:26:27.452Z,99590.31
2023-05-08T16:28:53.894Z,99593.31
2023-05-08T16:31:20.356Z,99588.31
2023-05-08T16:33:46.868Z,99585.16
2023-05-08T16:36:13.661Z,99589.38
2023-05-08T16:38:40.056Z,99593.53
2023-05-08T16:41:06.639Z,99589.69
2023-05-08T16:43:33.126Z,99589.81
2023-05-08T16:45:59.814Z,99593.53
2023-05-08T16:48:26.363Z,99596.13
2023-05-08T16:50:52.864Z,99607.66
2023-05-08T16:53:19.298Z,99601.97
2023-05-08T16:55:45.690Z,99608.50
2023-05-08T16:58:12.225Z,99601.41
2023-05-08T17:00:38.748Z,99596.03
2023-05-08T17:03:05.442Z,99603.41
2023-05-08T17:05:31.937Z,99611.09
2023-05-08T17:07:58.787Z,99608.25
2023-05-08T17:10:25.672Z,99610.72
2023-05-08T17:12:54.085Z,99609.84
2023-05-08T17:15:21.248Z,99614.78
2023-05-08T17:17:48.379Z,99617.69
2023-05-08T17:20:15.869Z,99615.22
2023-05-08T17:22:43.065Z,99611.88
2023-05-08T17:25:10.018Z,99612.22
2023-05-08T17:27:37.186Z,99618.06
2023-05-08T17:30:05.041Z,99618.78
2023-05-08T17:32:32.395Z,99621.78
2023-05-08T17:34:59.621Z,99620.56
2023-05-08T17:37:26.852Z,99626.34
2023-05-08T17:39:54.002Z,99630.19
2023-05-08T17:42:22.560Z,99633.13
2023-05-08T17:44:49.639Z,99629.97
2023-05-08T17:47:16.905Z,99631.56
2023-05-08T17:49:46.290Z,99632.91
2023-05-08T17:52:13.548Z,99640.59
2023-05-08T17:54:41.272Z,99649.06
2023-05-08T17:57:08.393Z,99650.81
2023-05-08T17:59:35.627Z,99645.00
2023-05-08T18:02:03.230Z,99652.50
2023-05-08T18:04:30.476Z,99655.38
2023-05-08T18:07:00.125Z,99663.59
2023-05-08T18:09:27.204Z,99671.09
2023-05-08T18:11:56.747Z,99672.25
2023-05-08T18:14:25.050Z,99669.31
2023-05-08T18:16:52.135Z,99681.09
2023-05-08T18:19:19.368Z,99683.72
2023-05-08T18:21:46.519Z,99683.84
2023-05-08T18:24:14.202Z,99699.59
2023-05-08T18:26:41.322Z,99692.72
2023-05-08T18:29:08.517Z,99697.31
2023-05-08T18:31:35.833Z,99698.53
2023-05-08T18:34:03.490Z,99692.19
2023-05-08T18:36:30.908Z,99693.66
2023-05-08T18:38:58.024Z,99697.84
2023-05-08T18:41:25.342Z,99708.06
2023-05-08T18:43:52.459Z,99706.88
2023-05-08T18:46:22.674Z,99709.84
2023-05-08T18:48:51.001Z,99713.22
2023-05-08T18:51:18.721Z,99717.47
2023-05-08T18:53:46.077Z,99717.13
2023-05-08T18:56:14.121Z,99722.03
2023-05-08T18:58:41.216Z,99730.09
2023-05-08T19:01:08.504Z,99723.31
2023-05-08T19:03:35.789Z,99729.56
2023-05-08T19:06:03.034Z,99728.13
2023-05-08T19:08:30.573Z,99729.03
2023-05-08T19:10:58.064Z,99737.22
2023-05-08T19:13:25.299Z,99741.47
2023-05-08T19:15:52.438Z,99745.63
2023-05-08T19:18:19.680Z,99747.44
2023-05-08T19:20:46.906Z,99745.75
2023-05-08T19:23:14.403Z,99745.56
2023-05-08T19:25:41.676Z,99740.75
2023-05-08T19:28:08.733Z,99746.59
2023-05-08T19:30:35.865Z,99733.84
2023-05-08T19:33:03.026Z,99739.25
2023-05-08T19:35:30.184Z,99737.97
2023-05-08T19:37:57.264Z,99742.66
2023-05-08T19:40:24.410Z,99741.75
2023-05-08T19:42:51.525Z,99740.06
2023-05-08T19:45:19.059Z,99743.03
2023-05-08T19:47:46.294Z,99739.47
2023-05-08T19:50:13.532Z,99737.13
2023-05-08T19:52:40.877Z,99739.25
2023-05-08T19:55:08.075Z,99745.88
2023-05-08T19:57:35.230Z,99735.44
2023-05-08T20:00:02.356Z,99733.75
2023-05-08T20:02:29.580Z,99730.53
2023-05-08T20:07:26.595Z,99749.69
2023-05-08T20:09:54.234Z,99746.47
2023-05-08T20:12:22.460Z,99747.47
2023-05-08T20:14:49.491Z,99750.84
2023-05-08T20:17:16.600Z,99746.78
2023-05-08T20:19:43.609Z,99748.53
2023-05-08T20:22:10.791Z,99744.41
2023-05-08T20:24:37.456Z,99743.38
2023-05-08T20:27:07.925Z,99741.09
2023-05-08T20:29:34.446Z,99741.63
2023-05-08T20:32:01.030Z,99739.41
2023-05-08T20:34:29.601Z,99743.94
2023-05-08T20:36:56.113Z,99741.31
2023-05-08T20:39:22.807Z,99740.56
2023-05-08T20:41:49.281Z,99740.13
2023-05-08T20:44:15.677Z,99740.75
2023-05-08T20:46:42.538Z,99742.56
2023-05-08T20:49:10.022Z,99743.19
2023-05-08T20:51:36.546Z,99743.19
2023-05-08T20:54:03.024Z,99750.00
2023-05-08T20:56:29.817Z,99738.00
2023-05-08T20:58:56.276Z,99745.81
2023-05-08T21:01:22.728Z,99739.00
2023-05-08T21:03:49.466Z,99740.16
2023-05-08T21:06:15.905Z,99742.88
2023-05-08T21:08:42.689Z,99745.66
2023-05-08T21:11:10.272Z,99738.06
2023-05-08T21:13:36.770Z,99730.88
2023-05-08T21:16:03.217Z,99742.03
2023-05-08T21:18:29.784Z,99739.97
2023-05-08T21:20:56.198Z,99731.63
2023-05-08T21:23:22.664Z,99744.78
2023-05-08T21:25:49.109Z,99735.94
2023-05-08T21:28:15.548Z,99742.53
2023-05-08T21:30:41.964Z,99746.03
2023-05-08T21:33:08.449Z,99744.13
2023-05-08T21:35:34.886Z,99738.38
2023-05-08T21:38:01.559Z,99736.19
2023-05-08T21:40:28.719Z,99737.50
2023-05-08T21:42:57.605Z,99739.84
2023-05-08T21:45:24.016Z,99738.44
2023-05-08T21:47:50.624Z,99742.31
2023-05-08T21:50:17.063Z,99750.19
2023-05-08T21:52:43.551Z,99744.69
2023-05-08T21:55:13.320Z,99741.56
2023-05-08T21:57:43.436Z,99742.59
2023-05-08T22:00:15.871Z,99743.84
2023-05-08T22:02:45.228Z,99744.31
2023-05-08T22:05:13.172Z,99742.41
2023-05-08T22:07:41.461Z,99747.53
2023-05-08T22:10:08.842Z,99747.53
2023-05-08T22:12:37.494Z,99746.41
2023-05-08T22:15:09.453Z,99752.06
2023-05-08T22:17:38.469Z,99752.84
2023-05-08T22:20:05.333Z,99748.50
2023-05-08T22:22:32.455Z,99756.81
2023-05-08T22:24:58.896Z,99746.31
2023-05-08T22:27:25.574Z,99754.47
2023-05-08T22:29:51.981Z,99757.41
2023-05-08T22:32:18.504Z,99754.94
2023-05-08T22:34:44.880Z,99763.09
2023-05-08T22:37:13.663Z,99757.78
2023-05-08T22:39:40.877Z,99768.75
2023-05-08T22:42:07.671Z,99760.25
2023-05-08T22:44:34.076Z,99754.00
2023-05-08T22:47:00.562Z,99758.63
2023-05-08T22:49:27.240Z,99763.66
2023-05-08T22:51:53.919Z,99750.59
2023-05-08T22:54:20.944Z,99756.47
2023-05-08T22:56:47.595Z,99756.84
2023-05-08T22:59:16.187Z,99750.69
2023-05-08T23:01:42.775Z,99748.22
2023-05-08T23:04:09.374Z,99756.28
2023-05-08T23:06:35.802Z,99749.28
2023-05-08T23:09:02.513Z,99756.28
2023-05-08T23:11:31.203Z,99754.56
2023-05-08T23:13:57.578Z,99752.78
2023-05-08T23:16:24.032Z,99752.84
2023-05-08T23:18:50.474Z,99751.13
2023-05-08T23:21:18.026Z,99755.59
2023-05-08T23:23:44.420Z,99750.56
2023-05-08T23:26:10.815Z,99749.81
2023-05-08T23:28:37.336Z,99744.50
2023-05-08T23:31:04.017Z,99742.81
2023-05-08T23:33:30.388Z,99741.97
2023-05-08T23:35:56.912Z,99748.31
2023-05-08T23:38:23.355Z,99734.28
2023-05-08T23:40:50.778Z,99731.81
2023-05-08T23:43:17.491Z,99722.38
2023-05-08T23:45:44.086Z,99726.16
2023-05-08T23:48:10.488Z,99724.97
2023-05-08T23:50:36.958Z,99727.03
2023-05-08T23:53:03.749Z,99728.16
2023-05-08T23:55:30.477Z,99724.28
2023-05-08T23:57:56.903Z,99724.28
